createdAt,value
2023-01-05T00:00:16.639Z,2.60
2023-01-05T00:03:06.678Z,2.97
2023-01-05T00:06:03.594Z,2.90
2023-01-05T00:08:52.983Z,2.78
2023-01-05T00:12:00.903Z,2.90
2023-01-05T00:15:08.317Z,2.70
2023-01-05T00:18:16.505Z,2.47
2023-01-05T00:21:33.433Z,2.58
2023-01-05T00:24:22.948Z,2.67
2023-01-05T00:27:12.226Z,2.90
2023-01-05T00:30:02.380Z,2.80
2023-01-05T00:32:51.840Z,2.72
2023-01-05T00:35:41.666Z,2.72
2023-01-05T00:38:31.222Z,2.80
2023-01-05T00:41:21.252Z,2.63
2023-01-05T00:44:10.682Z,2.80
2023-01-05T00:47:00.079Z,2.75
2023-01-05T00:49:49.427Z,2.90
2023-01-05T00:52:38.726Z,2.90
2023-01-05T00:55:28.063Z,2.90
2023-01-05T00:58:17.752Z,2.90
2023-01-05T01:01:16.418Z,2.70
2023-01-05T01:04:05.942Z,2.80
2023-01-05T01:06:55.623Z,2.80
2023-01-05T01:09:45.315Z,2.97
2023-01-05T01:12:34.670Z,2.83
2023-01-05T01:15:24.311Z,3.00
2023-01-05T01:18:13.703Z,3.40
2023-01-05T01:21:03.450Z,3.50
2023-01-05T01:23:52.946Z,3.03
2023-01-05T01:26:42.701Z,3.40
2023-01-05T01:29:32.335Z,3.03
2023-01-05T01:32:21.812Z,2.90
2023-01-05T01:35:11.425Z,2.85
2023-01-05T01:38:00.696Z,2.92
2023-01-05T01:40:50.420Z,2.83
2023-01-05T01:43:54.814Z,3.10
2023-01-05T01:46:47.126Z,3.13
2023-01-05T01:49:36.552Z,2.60
2023-01-05T01:52:31.088Z,2.70
2023-01-05T01:55:22.575Z,2.77
2023-01-05T01:58:17.535Z,3.08
2023-01-05T02:01:07.222Z,2.60
2023-01-05T02:03:58.090Z,2.90
2023-01-05T02:06:48.057Z,2.92
2023-01-05T02:09:38.047Z,2.97
2023-01-05T02:12:37.677Z,2.97
2023-01-05T02:15:59.297Z,2.60
2023-01-05T02:19:02.808Z,2.70
2023-01-05T02:22:16.838Z,2.97
2023-01-05T02:25:20.036Z,2.90
2023-01-05T02:28:27.282Z,2.90
2023-01-05T02:32:04.364Z,3.30
2023-01-05T02:35:25.932Z,3.10
2023-01-05T02:38:36.338Z,2.80
2023-01-05T02:41:47.712Z,3.13
2023-01-05T02:44:37.647Z,3.13
2023-01-05T02:47:28.682Z,3.00
2023-01-05T02:50:44.292Z,3.00
2023-01-05T02:53:41.227Z,3.00
2023-01-05T02:56:41.288Z,3.10
2023-01-05T02:59:40.634Z,2.97
2023-01-05T03:02:32.896Z,3.03
2023-01-05T03:05:32.854Z,3.07
2023-01-05T03:08:32.585Z,3.50
2023-01-05T03:11:52.143Z,3.13
2023-01-05T03:14:48.723Z,3.10
2023-01-05T03:17:53.783Z,2.70
2023-01-05T03:20:47.296Z,3.33
2023-01-05T03:27:02.611Z,3.17
2023-01-05T03:30:12.896Z,3.15
2023-01-05T03:33:27.973Z,2.95
2023-01-05T03:36:23.012Z,3.40
2023-01-05T03:39:16.129Z,3.10
2023-01-05T03:42:11.585Z,3.00
2023-01-05T03:45:01.073Z,2.90
2023-01-05T03:47:52.850Z,2.83
2023-01-05T03:50:47.436Z,3.22
2023-01-05T03:53:38.724Z,2.88
2023-01-05T03:56:29.338Z,2.78
2023-01-05T03:59:21.643Z,2.60
2023-01-05T04:02:12.746Z,2.70
2023-01-05T04:05:03.134Z,2.67
2023-01-05T04:07:52.987Z,2.63
2023-01-05T04:10:43.075Z,2.47
2023-01-05T04:13:34.969Z,2.78
2023-01-05T04:16:24.545Z,2.70
2023-01-05T04:19:18.052Z,2.70
2023-01-05T04:22:07.774Z,2.50
2023-01-05T04:24:57.291Z,2.58
2023-01-05T04:27:47.727Z,2.35
2023-01-05T04:30:39.388Z,2.90
2023-01-05T04:33:30.101Z,2.65
2023-01-05T04:36:20.380Z,2.40
2023-01-05T04:39:10.902Z,2.38
2023-01-05T04:42:00.638Z,2.40
2023-01-05T04:44:50.659Z,2.13
2023-01-05T04:47:56.582Z,2.60
2023-01-05T04:50:46.192Z,2.50
2023-01-05T04:53:39.254Z,2.40
2023-01-05T04:56:34.537Z,2.33
2023-01-05T04:59:27.378Z,2.50
2023-01-05T05:02:22.870Z,2.72
2023-01-05T05:05:15.223Z,2.55
2023-01-05T05:08:05.020Z,2.70
2023-01-05T05:10:57.203Z,2.65
2023-01-05T05:13:46.508Z,3.00
2023-01-05T05:16:36.544Z,2.80
2023-01-05T05:19:28.019Z,2.78
2023-01-05T05:22:18.258Z,2.85
2023-01-05T05:25:08.801Z,2.80
2023-01-05T05:28:00.502Z,2.70
2023-01-05T05:30:51.391Z,2.58
2023-01-05T05:33:42.692Z,2.60
2023-01-05T05:36:35.939Z,2.58
2023-01-05T05:39:27.550Z,2.60
2023-01-05T05:42:17.602Z,2.63
2023-01-05T05:45:10.035Z,2.60
2023-01-05T05:48:02.814Z,2.40
2023-01-05T05:50:53.433Z,2.42
2023-01-05T05:53:43.840Z,2.58
2023-01-05T05:56:34.008Z,2.50
2023-01-05T05:59:23.379Z,2.50
2023-01-05T06:02:13.064Z,2.60
2023-01-05T06:05:02.390Z,2.40
2023-01-05T06:07:52.827Z,2.50
2023-01-05T06:10:42.311Z,2.67
2023-01-05T06:13:31.820Z,2.42
2023-01-05T06:16:21.795Z,2.33
2023-01-05T06:19:11.817Z,2.30
2023-01-05T06:22:01.580Z,2.30
2023-01-05T06:24:50.944Z,2.47
2023-01-05T06:27:40.183Z,2.40
2023-01-05T06:30:30.676Z,2.58
2023-01-05T06:33:20.381Z,2.60
2023-01-05T06:36:10.071Z,2.30
2023-01-05T06:39:00.081Z,2.50
2023-01-05T06:41:49.577Z,2.20
2023-01-05T06:44:39.181Z,2.40
2023-01-05T06:47:29.617Z,2.72
2023-01-05T06:50:19.196Z,2.53
2023-01-05T06:53:08.417Z,2.40
2023-01-05T06:55:58.186Z,2.50
2023-01-05T06:58:47.448Z,2.35
2023-01-05T07:01:36.937Z,2.20
2023-01-05T07:04:26.294Z,2.30
2023-01-05T07:07:16.514Z,2.30
2023-01-05T07:10:06.553Z,2.50
2023-01-05T07:12:55.837Z,2.38
2023-01-05T07:15:45.569Z,2.40
2023-01-05T07:18:35.108Z,2.30
2023-01-05T07:21:24.700Z,2.20
2023-01-05T07:24:14.065Z,2.20
2023-01-05T07:27:09.453Z,2.40
2023-01-05T07:29:59.277Z,2.25
2023-01-05T07:32:48.779Z,2.20
2023-01-05T07:35:38.372Z,2.20
2023-01-05T07:38:27.652Z,2.20
2023-01-05T07:41:17.201Z,2.30
2023-01-05T07:44:06.800Z,2.22
2023-01-05T07:46:56.300Z,2.28
2023-01-05T07:49:47.502Z,2.22
2023-01-05T07:52:37.008Z,2.10
2023-01-05T07:55:26.578Z,2.20
2023-01-05T07:58:16.449Z,2.20
2023-01-05T08:01:07.625Z,2.40
2023-01-05T08:03:57.139Z,2.42
2023-01-05T08:06:47.134Z,2.55
2023-01-05T08:09:55.535Z,2.38
2023-01-05T08:13:03.593Z,2.40
2023-01-05T08:15:54.597Z,2.50
2023-01-05T08:18:44.130Z,2.30
2023-01-05T08:21:33.683Z,2.25
2023-01-05T08:24:24.402Z,2.40
2023-01-05T08:27:13.951Z,2.38
2023-01-05T08:30:03.306Z,2.70
2023-01-05T08:32:54.456Z,2.55
2023-01-05T08:35:46.101Z,2.35
2023-01-05T08:38:35.592Z,2.30
2023-01-05T08:41:44.429Z,2.30
2023-01-05T08:44:34.887Z,2.60
2023-01-05T08:47:28.736Z,2.30
2023-01-05T08:50:18.382Z,2.35
2023-01-05T08:53:08.030Z,2.50
2023-01-05T08:55:57.388Z,2.40
2023-01-05T08:58:48.887Z,2.40
2023-01-05T09:01:39.108Z,2.67
2023-01-05T09:04:28.769Z,2.33
2023-01-05T09:07:18.147Z,2.80
2023-01-05T09:10:08.792Z,2.40
2023-01-05T09:12:58.156Z,2.28
2023-01-05T09:15:47.729Z,2.85
2023-01-05T09:18:37.425Z,2.28
2023-01-05T09:21:26.996Z,2.60
2023-01-05T09:24:16.688Z,2.55
2023-01-05T09:27:08.217Z,2.50
2023-01-05T09:29:57.508Z,2.38
2023-01-05T09:32:46.692Z,2.42
2023-01-05T09:35:36.058Z,2.40
2023-01-05T09:38:25.855Z,2.30
2023-01-05T09:41:21.716Z,2.50
2023-01-05T09:44:38.747Z,2.30
2023-01-05T09:47:33.279Z,2.42
2023-01-05T09:50:25.917Z,2.65
2023-01-05T09:53:17.180Z,2.53
2023-01-05T09:56:07.653Z,2.50
2023-01-05T09:59:05.384Z,2.40
2023-01-05T10:01:57.232Z,2.40
2023-01-05T10:04:49.639Z,2.40
2023-01-05T10:07:55.843Z,2.55
2023-01-05T10:11:16.978Z,2.30
2023-01-05T10:14:25.661Z,2.40
2023-01-05T10:20:34.056Z,2.53
2023-01-05T10:23:41.759Z,2.40
2023-01-05T10:27:23.145Z,2.40
2023-01-05T10:33:25.248Z,2.50
2023-01-05T10:36:16.494Z,2.35
2023-01-05T10:39:20.982Z,2.58
2023-01-05T10:42:22.253Z,2.50
2023-01-05T10:45:14.465Z,2.50
2023-01-05T10:48:04.254Z,2.40
2023-01-05T10:50:55.635Z,2.60
2023-01-05T10:53:45.772Z,2.47
2023-01-05T10:56:35.028Z,2.45
2023-01-05T10:59:24.321Z,2.75
2023-01-05T11:02:14.889Z,2.83
2023-01-05T11:05:09.746Z,2.83
2023-01-05T11:08:03.488Z,3.00
2023-01-05T11:10:53.030Z,2.60
2023-01-05T11:13:47.465Z,2.60
2023-01-05T11:16:39.257Z,2.85
2023-01-05T11:19:42.367Z,2.50
2023-01-05T11:22:36.497Z,2.55
2023-01-05T11:25:30.218Z,2.50
2023-01-05T11:28:19.633Z,2.83
2023-01-05T11:31:09.207Z,2.50
2023-01-05T11:34:10.407Z,2.60
2023-01-05T11:37:11.201Z,2.38
2023-01-05T11:40:03.359Z,2.63
2023-01-05T11:42:52.900Z,2.70
2023-01-05T11:45:50.165Z,2.65
2023-01-05T11:48:40.406Z,2.78
2023-01-05T11:51:41.868Z,2.67
2023-01-05T11:54:39.217Z,2.60
2023-01-05T11:57:29.041Z,2.60
2023-01-05T12:00:28.609Z,2.50
2023-01-05T12:03:30.031Z,2.67
2023-01-05T12:06:34.243Z,2.50
2023-01-05T12:09:29.792Z,2.63
2023-01-05T12:12:29.148Z,2.40
2023-01-05T12:15:30.164Z,2.50
2023-01-05T12:18:40.333Z,2.50
2023-01-05T12:21:39.853Z,2.47
2023-01-05T12:24:38.195Z,2.45
2023-01-05T12:27:48.269Z,2.50
2023-01-05T12:34:13.393Z,2.58
2023-01-05T12:37:42.644Z,2.90
2023-01-05T12:40:46.984Z,2.58
2023-01-05T12:44:03.089Z,2.40
2023-01-05T12:47:10.135Z,2.47
2023-01-05T12:50:35.903Z,2.45
2023-01-05T12:53:37.418Z,2.30
2023-01-05T12:56:43.917Z,2.50
2023-01-05T12:59:51.727Z,2.63
2023-01-05T13:02:50.441Z,2.40
2023-01-05T13:06:02.210Z,2.53
2023-01-05T13:09:04.646Z,2.65
2023-01-05T13:12:02.839Z,2.42
2023-01-05T13:15:16.846Z,2.55
2023-01-05T13:18:07.525Z,2.40
2023-01-05T13:21:09.566Z,2.45
2023-01-05T13:24:11.155Z,2.20
2023-01-05T13:27:01.168Z,2.53
2023-01-05T13:29:55.473Z,2.58
2023-01-05T13:32:57.605Z,2.72
2023-01-05T13:36:10.899Z,2.30
2023-01-05T13:39:41.487Z,2.92
2023-01-05T13:42:48.199Z,2.42
2023-01-05T13:45:56.051Z,2.83
2023-01-05T13:49:12.431Z,2.50
2023-01-05T13:52:18.935Z,2.55
2023-01-05T13:55:25.125Z,2.60
2023-01-05T13:58:33.311Z,2.50
2023-01-05T14:01:37.313Z,2.30
2023-01-05T14:04:30.552Z,2.60
2023-01-05T14:07:22.193Z,2.30
2023-01-05T14:10:28.431Z,2.50
2023-01-05T14:13:43.798Z,2.50
2023-01-05T14:16:36.245Z,2.75
2023-01-05T14:22:44.865Z,2.58
2023-01-05T14:26:03.740Z,2.60
2023-01-05T14:28:52.921Z,2.40
2023-01-05T14:31:45.540Z,2.50
2023-01-05T14:34:35.393Z,2.20
2023-01-05T14:37:30.704Z,2.53
2023-01-05T14:40:31.735Z,2.65
2023-01-05T14:43:36.963Z,2.38
2023-01-05T14:46:28.747Z,2.88
2023-01-05T14:49:38.896Z,2.47
2023-01-05T14:52:54.122Z,2.50
2023-01-05T14:56:04.546Z,2.50
2023-01-05T14:59:03.301Z,2.45
2023-01-05T15:05:15.028Z,2.38
2023-01-05T15:08:36.244Z,2.38
2023-01-05T15:12:02.209Z,2.60
2023-01-05T15:15:06.983Z,2.50
2023-01-05T15:18:14.287Z,2.45
2023-01-05T15:21:32.311Z,2.45
2023-01-05T15:24:55.455Z,2.95
2023-01-05T15:28:03.742Z,2.60
2023-01-05T15:31:10.834Z,2.38
2023-01-05T15:34:09.173Z,2.42
2023-01-05T15:37:23.173Z,2.50
2023-01-05T15:40:33.517Z,2.30
2023-01-05T15:43:23.103Z,2.20
2023-01-05T15:46:13.669Z,2.40
2023-01-05T15:49:02.968Z,2.20
2023-01-05T15:51:54.846Z,2.30
2023-01-05T15:54:44.111Z,2.30
2023-01-05T15:57:33.552Z,2.30
2023-01-05T16:00:27.321Z,2.50
2023-01-05T16:03:30.001Z,2.20
2023-01-05T16:06:25.150Z,2.40
2023-01-05T16:09:32.852Z,2.40
2023-01-05T16:12:26.227Z,2.40
2023-01-05T16:18:09.994Z,2.50
2023-01-05T16:21:00.483Z,2.55
2023-01-05T16:24:24.321Z,2.50
2023-01-05T16:27:15.082Z,2.53
2023-01-05T16:30:27.987Z,2.40
2023-01-05T16:33:23.077Z,2.60
2023-01-05T16:36:14.304Z,2.42
2023-01-05T16:39:25.880Z,2.50
2023-01-05T16:42:55.626Z,2.10
2023-01-05T16:45:44.893Z,2.42
2023-01-05T16:48:37.067Z,2.30
2023-01-05T16:51:36.795Z,2.42
2023-01-05T16:54:37.861Z,2.50
2023-01-05T16:57:56.662Z,2.30
2023-01-05T17:00:46.051Z,2.40
2023-01-05T17:03:35.588Z,2.60
2023-01-05T17:06:30.796Z,2.47
2023-01-05T17:09:32.048Z,2.58
2023-01-05T17:12:25.240Z,2.33
2023-01-05T17:15:21.753Z,2.53
2023-01-05T17:18:23.843Z,2.70
2023-01-05T17:21:18.996Z,2.38
2023-01-05T17:24:10.637Z,2.60
2023-01-05T17:27:00.291Z,2.63
2023-01-05T17:29:49.633Z,2.38
2023-01-05T17:32:38.905Z,2.40
2023-01-05T17:35:28.229Z,2.60
2023-01-05T17:38:17.853Z,2.53
2023-01-05T17:41:07.398Z,2.85
2023-01-05T17:43:56.740Z,2.50
2023-01-05T17:46:48.509Z,2.70
2023-01-05T17:49:38.238Z,2.80
2023-01-05T17:52:27.526Z,2.78
2023-01-05T17:55:16.814Z,2.40
2023-01-05T17:58:06.163Z,2.97
2023-01-05T18:00:56.175Z,2.63
2023-01-05T18:03:45.468Z,2.90
2023-01-05T18:06:34.685Z,2.80
2023-01-05T18:12:32.938Z,2.70
2023-01-05T18:15:22.246Z,2.85
2023-01-05T18:18:12.163Z,2.85
2023-01-05T18:21:02.839Z,2.80
2023-01-05T18:23:52.084Z,2.63
2023-01-05T18:29:46.395Z,2.50
2023-01-05T18:32:35.840Z,2.80
2023-01-05T18:35:25.512Z,2.80
2023-01-05T18:38:14.795Z,2.75
2023-01-05T18:41:04.108Z,2.53
2023-01-05T18:43:53.542Z,2.50
2023-01-05T18:46:43.060Z,2.90
2023-01-05T18:49:32.309Z,3.00
2023-01-05T18:52:21.735Z,2.92
2023-01-05T18:55:12.200Z,2.72
2023-01-05T18:58:01.530Z,2.53
2023-01-05T19:00:50.805Z,2.70
2023-01-05T19:03:40.516Z,2.70
2023-01-05T19:06:29.824Z,2.80
2023-01-05T19:09:19.063Z,2.88
2023-01-05T19:12:08.956Z,2.80
2023-01-05T19:14:59.191Z,2.88
2023-01-05T19:17:51.104Z,2.75
2023-01-05T19:20:40.370Z,2.60
2023-01-05T19:23:30.253Z,2.70
2023-01-05T19:26:19.496Z,2.65
2023-01-05T19:29:09.012Z,2.90
2023-01-05T19:31:58.881Z,3.33
2023-01-05T19:34:48.314Z,2.83
2023-01-05T19:37:40.210Z,3.00
2023-01-05T19:40:29.953Z,3.10
2023-01-05T19:43:19.212Z,3.08
2023-01-05T19:46:13.793Z,3.17
2023-01-05T19:49:03.568Z,2.90
2023-01-05T19:51:53.640Z,2.95
2023-01-05T19:54:43.425Z,3.17
2023-01-05T19:57:32.921Z,2.97
2023-01-05T20:00:22.316Z,3.00
2023-01-05T20:03:11.569Z,2.83
2023-01-05T20:06:12.979Z,2.67
2023-01-05T20:09:03.684Z,2.90
2023-01-05T20:11:59.471Z,2.78
2023-01-05T20:14:52.629Z,3.05
2023-01-05T20:17:43.324Z,2.78
2023-01-05T20:20:32.843Z,2.97
2023-01-05T20:23:22.113Z,2.88
2023-01-05T20:26:15.060Z,2.60
2023-01-05T20:29:04.658Z,2.80
2023-01-05T20:31:59.920Z,2.67
2023-01-05T20:34:56.091Z,2.90
2023-01-05T20:37:45.679Z,2.83
2023-01-05T20:40:35.168Z,2.85
2023-01-05T20:43:24.593Z,3.05
2023-01-05T20:46:15.463Z,2.85
2023-01-05T20:49:06.062Z,2.75
2023-01-05T20:51:55.809Z,3.17
2023-01-05T20:54:45.193Z,2.70
2023-01-05T20:57:34.583Z,3.00
2023-01-05T21:00:25.242Z,2.70
2023-01-05T21:03:15.381Z,3.05
2023-01-05T21:06:06.724Z,3.15
2023-01-05T21:08:56.614Z,3.08
2023-01-05T21:11:47.265Z,3.03
2023-01-05T21:14:36.762Z,3.15
2023-01-05T21:17:26.113Z,2.80
2023-01-05T21:20:15.721Z,2.85
2023-01-05T21:23:05.156Z,2.95
2023-01-05T21:26:06.176Z,3.13
2023-01-05T21:28:57.734Z,2.90
2023-01-05T21:31:47.591Z,2.88
2023-01-05T21:34:36.919Z,2.75
2023-01-05T21:37:26.367Z,3.00
2023-01-05T21:40:15.708Z,2.85
2023-01-05T21:43:05.789Z,2.72
2023-01-05T21:45:56.054Z,2.72
2023-01-05T21:48:45.947Z,2.63
2023-01-05T21:51:54.124Z,2.70
2023-01-05T21:55:01.958Z,2.90
2023-01-05T21:57:51.306Z,2.70
2023-01-05T22:00:40.799Z,2.88
2023-01-05T22:03:30.672Z,2.95
2023-01-05T22:06:20.584Z,2.70
2023-01-05T22:09:10.120Z,2.90
2023-01-05T22:11:59.556Z,2.90
2023-01-05T22:14:48.929Z,3.03
2023-01-05T22:17:38.308Z,3.05
2023-01-05T22:20:27.714Z,2.60
2023-01-05T22:23:17.576Z,2.70
2023-01-05T22:26:09.944Z,2.60
2023-01-05T22:28:59.588Z,2.67
2023-01-05T22:31:51.339Z,2.97
2023-01-05T22:34:44.762Z,3.00
2023-01-05T22:40:23.987Z,2.50
2023-01-05T22:43:14.411Z,2.83
2023-01-05T22:46:06.819Z,2.85
2023-01-05T22:48:56.966Z,2.78
2023-01-05T22:51:47.357Z,2.55
2023-01-05T22:54:36.854Z,2.85
2023-01-05T22:57:27.009Z,3.00
2023-01-05T23:00:16.688Z,2.80
2023-01-05T23:03:06.345Z,2.67
2023-01-05T23:05:56.146Z,2.83
2023-01-05T23:08:47.723Z,2.78
2023-01-05T23:11:40.160Z,2.80
2023-01-05T23:14:29.773Z,2.83
2023-01-05T23:17:19.152Z,2.72
2023-01-05T23:20:09.854Z,2.50
2023-01-05T23:22:59.721Z,3.33
2023-01-05T23:25:50.841Z,2.75
2023-01-05T23:28:40.764Z,2.70
2023-01-05T23:31:30.541Z,3.28
2023-01-05T23:34:20.032Z,2.60
2023-01-05T23:37:09.645Z,2.67
2023-01-05T23:39:59.165Z,3.22
2023-01-05T23:42:48.732Z,2.80
2023-01-05T23:45:38.007Z,3.08
2023-01-05T23:48:27.480Z,2.80
2023-01-05T23:51:18.184Z,2.70
2023-01-05T23:54:07.717Z,2.55
2023-01-05T23:56:56.931Z,2.60
2023-01-05T23:59:46.629Z,2.97
